In Rescue
 
Open Full Screen Window  High Contrast Mode
Wind Gusting 00 knots
03
March 19, 2019 7:05 PM EDT
Weather Information
Wind Direction
  350 °
Wind Speed
  03 kt (3 mph)
Wind Gust
  00 kt (0 mph)
Altimeter
30.33 in
Visibility
10 SM
Temperature
-05° C
23° F
Dewpoint
-13° C
F
Humidity
54%
Sky Condition
Clear
VFR

METAR KEFK 192305Z AUTO 35003KT 10SM CLR M05/M13 A3033 RMK AO2 T10491127

FAA Disclaimer: The data displayed is for advisory purposes only and is not to be used for flight planning or operations.